sensor_id;sensor_type;location;lat;lon;timestamp;temperature;humidity
2489;DHT22;1255;48.716;9.124;2023-05-10T00:00:59;13.40;99.90
2489;DHT22;1255;48.716;9.124;2023-05-10T00:03:26;13.40;99.90
2489;DHT22;1255;48.716;9.124;2023-05-10T00:05:54;13.40;99.90
2489;DHT22;1255;48.716;9.124;2023-05-10T00:08:22;13.40;99.90
2489;DHT22;1255;48.716;9.124;2023-05-10T00:10:49;13.40;99.90
2489;DHT22;1255;48.716;9.124;2023-05-10T00:13:15;13.40;99.90
2489;DHT22;1255;48.716;9.124;2023-05-10T00:15:42;13.40;99.90
2489;DHT22;1255;48.716;9.124;2023-05-10T00:18:09;13.40;99.90
2489;DHT22;1255;48.716;9.124;2023-05-10T00:20:35;13.30;99.90
2489;DHT22;1255;48.716;9.124;2023-05-10T00:23:02;13.30;99.90
2489;DHT22;1255;48.716;9.124;2023-05-10T00:25:30;13.20;99.90
2489;DHT22;1255;48.716;9.124;2023-05-10T00:27:57;13.20;99.90
2489;DHT22;1255;48.716;9.124;2023-05-10T00:30:24;13.10;99.90
2489;DHT22;1255;48.716;9.124;2023-05-10T00:32:50;13.10;99.90
2489;DHT22;1255;48.716;9.124;2023-05-10T00:35:17;13.00;99.90
2489;DHT22;1255;48.716;9.124;2023-05-10T00:37:44;13.00;99.90
2489;DHT22;1255;48.716;9.124;2023-05-10T00:40:11;12.90;99.90
2489;DHT22;1255;48.716;9.124;2023-05-10T00:42:39;12.90;99.90
2489;DHT22;1255;48.716;9.124;2023-05-10T00:45:07;12.90;99.90
2489;DHT22;1255;48.716;9.124;2023-05-10T00:47:34;12.90;99.90
2489;DHT22;1255;48.716;9.124;2023-05-10T00:50:01;12.90;99.90
2489;DHT22;1255;48.716;9.124;2023-05-10T00:52:29;12.90;99.90
2489;DHT22;1255;48.716;9.124;2023-05-10T00:54:56;12.80;99.90
2489;DHT22;1255;48.716;9.124;2023-05-10T00:57:24;12.80;99.90
2489;DHT22;1255;48.716;9.124;2023-05-10T00:59:52;12.70;99.90
2489;DHT22;1255;48.716;9.124;2023-05-10T01:02:19;12.70;99.90
2489;DHT22;1255;48.716;9.124;2023-05-10T01:04:45;12.70;99.90
2489;DHT22;1255;48.716;9.124;2023-05-10T01:07:12;12.70;99.90
2489;DHT22;1255;48.716;9.124;2023-05-10T01:09:39;12.70;99.90
2489;DHT22;1255;48.716;9.124;2023-05-10T01:12:06;12.70;99.90
2489;DHT22;1255;48.716;9.124;2023-05-10T01:14:34;12.60;99.90
2489;DHT22;1255;48.716;9.124;2023-05-10T01:17:04;12.60;99.90
2489;DHT22;1255;48.716;9.124;2023-05-10T01:19:31;12.60;99.90
2489;DHT22;1255;48.716;9.124;2023-05-10T01:22:05;12.60;99.90
2489;DHT22;1255;48.716;9.124;2023-05-10T01:24:50;12.60;99.90
2489;DHT22;1255;48.716;9.124;2023-05-10T01:27:38;12.60;99.90
2489;DHT22;1255;48.716;9.124;2023-05-10T01:33:11;12.60;99.90
2489;DHT22;1255;48.716;9.124;2023-05-10T01:35:45;12.60;99.90
2489;DHT22;1255;48.716;9.124;2023-05-10T01:38:18;12.60;99.90
2489;DHT22;1255;48.716;9.124;2023-05-10T01:40:52;12.60;99.90
2489;DHT22;1255;48.716;9.124;2023-05-10T01:43:28;12.60;99.90
2489;DHT22;1255;48.716;9.124;2023-05-10T01:46:02;12.50;99.90
2489;DHT22;1255;48.716;9.124;2023-05-10T01:48:37;12.50;99.90
2489;DHT22;1255;48.716;9.124;2023-05-10T01:51:06;12.50;99.90
2489;DHT22;1255;48.716;9.124;2023-05-10T01:53:37;12.50;99.90
2489;DHT22;1255;48.716;9.124;2023-05-10T01:56:05;12.40;99.90
2489;DHT22;1255;48.716;9.124;2023-05-10T01:58:34;12.40;99.90
2489;DHT22;1255;48.716;9.124;2023-05-10T02:01:04;12.40;99.90
2489;DHT22;1255;48.716;9.124;2023-05-10T02:03:32;12.40;99.90
2489;DHT22;1255;48.716;9.124;2023-05-10T02:06:03;12.40;99.90
2489;DHT22;1255;48.716;9.124;2023-05-10T02:08:32;12.30;99.90
2489;DHT22;1255;48.716;9.124;2023-05-10T02:10:59;12.30;99.90
2489;DHT22;1255;48.716;9.124;2023-05-10T02:13:27;12.20;99.90
2489;DHT22;1255;48.716;9.124;2023-05-10T02:15:55;12.20;99.90
2489;DHT22;1255;48.716;9.124;2023-05-10T02:18:24;12.20;99.90
2489;DHT22;1255;48.716;9.124;2023-05-10T02:20:53;12.20;99.90
2489;DHT22;1255;48.716;9.124;2023-05-10T02:23:23;12.10;99.90
2489;DHT22;1255;48.716;9.124;2023-05-10T02:25:51;12.10;99.90
2489;DHT22;1255;48.716;9.124;2023-05-10T02:28:21;12.10;99.90
2489;DHT22;1255;48.716;9.124;2023-05-10T02:30:49;12.10;99.90
2489;DHT22;1255;48.716;9.124;2023-05-10T02:33:16;12.00;99.90
2489;DHT22;1255;48.716;9.124;2023-05-10T02:35:43;12.00;99.90
2489;DHT22;1255;48.716;9.124;2023-05-10T02:38:11;12.00;99.90
2489;DHT22;1255;48.716;9.124;2023-05-10T02:40:41;12.10;99.90
2489;DHT22;1255;48.716;9.124;2023-05-10T02:43:11;12.00;99.90
2489;DHT22;1255;48.716;9.124;2023-05-10T02:45:39;12.10;99.90
2489;DHT22;1255;48.716;9.124;2023-05-10T02:48:06;12.10;99.90
2489;DHT22;1255;48.716;9.124;2023-05-10T02:50:34;12.00;99.90
2489;DHT22;1255;48.716;9.124;2023-05-10T02:53:09;12.10;99.90
2489;DHT22;1255;48.716;9.124;2023-05-10T02:55:38;12.10;99.90
2489;DHT22;1255;48.716;9.124;2023-05-10T02:58:08;12.10;99.90
2489;DHT22;1255;48.716;9.124;2023-05-10T03:00:34;12.10;99.90
2489;DHT22;1255;48.716;9.124;2023-05-10T03:03:02;12.10;99.90
2489;DHT22;1255;48.716;9.124;2023-05-10T03:05:28;12.10;99.90
2489;DHT22;1255;48.716;9.124;2023-05-10T03:07:56;12.10;99.90
2489;DHT22;1255;48.716;9.124;2023-05-10T03:10:26;12.00;99.90
2489;DHT22;1255;48.716;9.124;2023-05-10T03:13:06;12.10;99.90
2489;DHT22;1255;48.716;9.124;2023-05-10T03:15:40;12.00;99.90
2489;DHT22;1255;48.716;9.124;2023-05-10T03:18:11;12.00;99.90
2489;DHT22;1255;48.716;9.124;2023-05-10T03:20:42;12.10;99.90
2489;DHT22;1255;48.716;9.124;2023-05-10T03:23:13;12.10;99.90
2489;DHT22;1255;48.716;9.124;2023-05-10T03:25:48;12.10;99.90
2489;DHT22;1255;48.716;9.124;2023-05-10T03:28:16;12.10;99.90
2489;DHT22;1255;48.716;9.124;2023-05-10T03:30:45;12.10;99.90
2489;DHT22;1255;48.716;9.124;2023-05-10T03:33:12;12.10;99.90
2489;DHT22;1255;48.716;9.124;2023-05-10T03:35:39;12.10;99.90
2489;DHT22;1255;48.716;9.124;2023-05-10T03:38:06;12.00;99.90
2489;DHT22;1255;48.716;9.124;2023-05-10T03:40:33;12.00;99.90
2489;DHT22;1255;48.716;9.124;2023-05-10T03:42:59;12.00;99.90
2489;DHT22;1255;48.716;9.124;2023-05-10T03:45:26;12.00;99.90
2489;DHT22;1255;48.716;9.124;2023-05-10T03:47:54;12.00;99.90
2489;DHT22;1255;48.716;9.124;2023-05-10T03:50:21;12.00;99.90
2489;DHT22;1255;48.716;9.124;2023-05-10T03:52:48;12.00;99.90
2489;DHT22;1255;48.716;9.124;2023-05-10T03:55:15;12.00;99.90
2489;DHT22;1255;48.716;9.124;2023-05-10T03:57:42;12.00;99.90
2489;DHT22;1255;48.716;9.124;2023-05-10T04:00:10;12.00;99.90
2489;DHT22;1255;48.716;9.124;2023-05-10T04:02:37;12.00;99.90
2489;DHT22;1255;48.716;9.124;2023-05-10T04:05:05;12.00;99.90
2489;DHT22;1255;48.716;9.124;2023-05-10T04:07:32;11.90;99.90
2489;DHT22;1255;48.716;9.124;2023-05-10T04:09:59;12.00;99.90
2489;DHT22;1255;48.716;9.124;2023-05-10T04:17:28;12.00;99.90
2489;DHT22;1255;48.716;9.124;2023-05-10T04:19:56;12.00;99.90
2489;DHT22;1255;48.716;9.124;2023-05-10T04:22:24;12.00;99.90
2489;DHT22;1255;48.716;9.124;2023-05-10T04:24:50;12.00;99.90
2489;DHT22;1255;48.716;9.124;2023-05-10T04:27:17;12.00;99.90
2489;DHT22;1255;48.716;9.124;2023-05-10T04:29:44;12.00;99.90
2489;DHT22;1255;48.716;9.124;2023-05-10T04:32:10;12.00;99.90
2489;DHT22;1255;48.716;9.124;2023-05-10T04:34:37;11.90;99.90
2489;DHT22;1255;48.716;9.124;2023-05-10T04:37:04;11.90;99.90
2489;DHT22;1255;48.716;9.124;2023-05-10T04:39:32;12.00;99.90
2489;DHT22;1255;48.716;9.124;2023-05-10T04:41:58;12.00;99.90
2489;DHT22;1255;48.716;9.124;2023-05-10T04:44:25;11.90;99.90
2489;DHT22;1255;48.716;9.124;2023-05-10T04:46:52;11.90;99.90
2489;DHT22;1255;48.716;9.124;2023-05-10T04:49:18;11.90;99.90
2489;DHT22;1255;48.716;9.124;2023-05-10T04:51:45;11.90;99.90
2489;DHT22;1255;48.716;9.124;2023-05-10T04:54:12;11.90;99.90
2489;DHT22;1255;48.716;9.124;2023-05-10T04:56:40;11.90;99.90
2489;DHT22;1255;48.716;9.124;2023-05-10T04:59:07;12.00;99.90
2489;DHT22;1255;48.716;9.124;2023-05-10T05:01:33;12.00;99.90
2489;DHT22;1255;48.716;9.124;2023-05-10T05:04:00;12.10;99.90
2489;DHT22;1255;48.716;9.124;2023-05-10T05:06:27;12.20;99.90
2489;DHT22;1255;48.716;9.124;2023-05-10T05:08:53;12.20;99.90
2489;DHT22;1255;48.716;9.124;2023-05-10T05:11:20;12.30;99.90
2489;DHT22;1255;48.716;9.124;2023-05-10T05:13:48;12.40;99.90
2489;DHT22;1255;48.716;9.124;2023-05-10T05:16:15;12.40;99.90
2489;DHT22;1255;48.716;9.124;2023-05-10T05:18:41;12.50;99.90
2489;DHT22;1255;48.716;9.124;2023-05-10T05:21:18;12.50;99.90
2489;DHT22;1255;48.716;9.124;2023-05-10T05:23:45;12.50;99.90
2489;DHT22;1255;48.716;9.124;2023-05-10T05:26:12;12.50;99.90
2489;DHT22;1255;48.716;9.124;2023-05-10T05:28:40;12.50;99.90
2489;DHT22;1255;48.716;9.124;2023-05-10T05:31:08;12.60;99.90
2489;DHT22;1255;48.716;9.124;2023-05-10T05:33:35;12.60;99.90
2489;DHT22;1255;48.716;9.124;2023-05-10T05:36:02;12.60;99.90
2489;DHT22;1255;48.716;9.124;2023-05-10T05:38:29;12.60;99.90
2489;DHT22;1255;48.716;9.124;2023-05-10T05:40:56;12.60;99.90
2489;DHT22;1255;48.716;9.124;2023-05-10T05:43:23;12.70;99.90
2489;DHT22;1255;48.716;9.124;2023-05-10T05:45:51;12.70;99.90
2489;DHT22;1255;48.716;9.124;2023-05-10T05:48:20;12.70;99.90
2489;DHT22;1255;48.716;9.124;2023-05-10T05:50:46;12.70;99.90
2489;DHT22;1255;48.716;9.124;2023-05-10T05:53:13;12.80;99.90
2489;DHT22;1255;48.716;9.124;2023-05-10T05:55:40;12.80;99.90
2489;DHT22;1255;48.716;9.124;2023-05-10T05:58:06;12.90;99.90
2489;DHT22;1255;48.716;9.124;2023-05-10T06:00:33;12.90;99.90
2489;DHT22;1255;48.716;9.124;2023-05-10T06:03:00;13.00;99.90
2489;DHT22;1255;48.716;9.124;2023-05-10T06:05:28;13.10;99.90
2489;DHT22;1255;48.716;9.124;2023-05-10T06:07:55;13.10;99.90
2489;DHT22;1255;48.716;9.124;2023-05-10T06:10:22;13.20;99.90
2489;DHT22;1255;48.716;9.124;2023-05-10T06:12:50;13.30;99.90
2489;DHT22;1255;48.716;9.124;2023-05-10T06:15:18;13.30;99.90
2489;DHT22;1255;48.716;9.124;2023-05-10T06:17:45;13.30;99.90
2489;DHT22;1255;48.716;9.124;2023-05-10T06:20:13;13.40;99.90
2489;DHT22;1255;48.716;9.124;2023-05-10T06:22:41;13.40;99.90
2489;DHT22;1255;48.716;9.124;2023-05-10T06:25:09;13.50;99.90
2489;DHT22;1255;48.716;9.124;2023-05-10T06:27:36;13.50;99.90
2489;DHT22;1255;48.716;9.124;2023-05-10T06:30:04;13.50;99.90
2489;DHT22;1255;48.716;9.124;2023-05-10T06:32:31;13.50;99.90
2489;DHT22;1255;48.716;9.124;2023-05-10T06:34:58;13.50;99.90
2489;DHT22;1255;48.716;9.124;2023-05-10T06:37:24;13.50;99.90
2489;DHT22;1255;48.716;9.124;2023-05-10T06:39:52;13.50;99.90
2489;DHT22;1255;48.716;9.124;2023-05-10T06:42:19;13.60;99.90
2489;DHT22;1255;48.716;9.124;2023-05-10T06:44:46;13.60;99.90
2489;DHT22;1255;48.716;9.124;2023-05-10T06:47:12;13.60;99.90
2489;DHT22;1255;48.716;9.124;2023-05-10T06:49:39;13.60;99.90
2489;DHT22;1255;48.716;9.124;2023-05-10T06:52:06;13.60;99.90
2489;DHT22;1255;48.716;9.124;2023-05-10T06:54:33;13.60;99.90
2489;DHT22;1255;48.716;9.124;2023-05-10T06:57:01;13.60;99.90
2489;DHT22;1255;48.716;9.124;2023-05-10T06:59:28;13.60;99.90
2489;DHT22;1255;48.716;9.124;2023-05-10T07:01:55;13.60;99.90
2489;DHT22;1255;48.716;9.124;2023-05-10T07:04:21;13.70;99.90
2489;DHT22;1255;48.716;9.124;2023-05-10T07:06:48;13.70;99.90
2489;DHT22;1255;48.716;9.124;2023-05-10T07:09:15;13.70;99.90
2489;DHT22;1255;48.716;9.124;2023-05-10T07:11:42;13.70;99.90
2489;DHT22;1255;48.716;9.124;2023-05-10T07:14:10;13.80;99.90
2489;DHT22;1255;48.716;9.124;2023-05-10T07:16:37;13.90;99.90
2489;DHT22;1255;48.716;9.124;2023-05-10T07:19:04;13.90;99.90
2489;DHT22;1255;48.716;9.124;2023-05-10T07:21:31;14.00;99.90
2489;DHT22;1255;48.716;9.124;2023-05-10T07:23:57;14.20;99.90
2489;DHT22;1255;48.716;9.124;2023-05-10T07:26:25;14.30;99.90
2489;DHT22;1255;48.716;9.124;2023-05-10T07:28:51;14.30;99.90
2489;DHT22;1255;48.716;9.124;2023-05-10T07:31:19;14.40;99.90
2489;DHT22;1255;48.716;9.124;2023-05-10T07:33:46;14.40;99.90
2489;DHT22;1255;48.716;9.124;2023-05-10T07:36:13;14.40;99.90
2489;DHT22;1255;48.716;9.124;2023-05-10T07:38:39;14.50;99.90
2489;DHT22;1255;48.716;9.124;2023-05-10T07:41:06;14.50;99.90
2489;DHT22;1255;48.716;9.124;2023-05-10T07:43:33;14.50;99.90
2489;DHT22;1255;48.716;9.124;2023-05-10T07:46:00;14.60;99.90
2489;DHT22;1255;48.716;9.124;2023-05-10T07:48:28;14.70;99.90
2489;DHT22;1255;48.716;9.124;2023-05-10T07:50:55;14.70;99.90
2489;DHT22;1255;48.716;9.124;2023-05-10T07:53:21;14.70;99.90
2489;DHT22;1255;48.716;9.124;2023-05-10T07:55:50;14.70;99.90
2489;DHT22;1255;48.716;9.124;2023-05-10T07:58:17;14.70;99.90
2489;DHT22;1255;48.716;9.124;2023-05-10T08:00:43;14.80;99.90
2489;DHT22;1255;48.716;9.124;2023-05-10T08:03:10;14.80;99.90
2489;DHT22;1255;48.716;9.124;2023-05-10T08:05:38;14.80;99.90
2489;DHT22;1255;48.716;9.124;2023-05-10T08:08:05;14.70;99.90
2489;DHT22;1255;48.716;9.124;2023-05-10T08:10:32;14.70;99.90
2489;DHT22;1255;48.716;9.124;2023-05-10T08:12:58;14.70;99.90
2489;DHT22;1255;48.716;9.124;2023-05-10T08:15:25;14.70;99.90
2489;DHT22;1255;48.716;9.124;2023-05-10T08:17:52;14.90;99.90
2489;DHT22;1255;48.716;9.124;2023-05-10T08:20:18;15.00;99.90
2489;DHT22;1255;48.716;9.124;2023-05-10T08:22:47;15.00;99.90
2489;DHT22;1255;48.716;9.124;2023-05-10T08:25:15;14.90;99.90
2489;DHT22;1255;48.716;9.124;2023-05-10T08:27:41;15.00;99.90
2489;DHT22;1255;48.716;9.124;2023-05-10T08:30:10;15.10;99.90
2489;DHT22;1255;48.716;9.124;2023-05-10T08:32:37;15.20;99.90
2489;DHT22;1255;48.716;9.124;2023-05-10T08:35:05;15.20;99.90
2489;DHT22;1255;48.716;9.124;2023-05-10T08:37:31;15.20;99.90
2489;DHT22;1255;48.716;9.124;2023-05-10T08:39:59;15.10;99.90
2489;DHT22;1255;48.716;9.124;2023-05-10T08:42:29;15.10;99.90
2489;DHT22;1255;48.716;9.124;2023-05-10T08:44:57;15.20;99.90
2489;DHT22;1255;48.716;9.124;2023-05-10T08:47:25;15.30;99.90
2489;DHT22;1255;48.716;9.124;2023-05-10T08:49:52;15.30;99.90
2489;DHT22;1255;48.716;9.124;2023-05-10T08:52:20;15.40;99.90
2489;DHT22;1255;48.716;9.124;2023-05-10T08:54:48;15.50;99.90
2489;DHT22;1255;48.716;9.124;2023-05-10T08:57:16;15.50;99.90
2489;DHT22;1255;48.716;9.124;2023-05-10T08:59:43;15.40;99.90
2489;DHT22;1255;48.716;9.124;2023-05-10T09:02:11;15.30;99.90
2489;DHT22;1255;48.716;9.124;2023-05-10T09:04:39;15.30;99.90
2489;DHT22;1255;48.716;9.124;2023-05-10T09:07:06;15.40;99.90
2489;DHT22;1255;48.716;9.124;2023-05-10T09:09:34;15.50;99.90
2489;DHT22;1255;48.716;9.124;2023-05-10T09:12:01;15.70;99.90
2489;DHT22;1255;48.716;9.124;2023-05-10T09:14:29;15.90;99.90
2489;DHT22;1255;48.716;9.124;2023-05-10T09:16:56;15.90;99.90
2489;DHT22;1255;48.716;9.124;2023-05-10T09:19:23;15.90;99.90
2489;DHT22;1255;48.716;9.124;2023-05-10T09:21:50;16.00;99.90
2489;DHT22;1255;48.716;9.124;2023-05-10T09:24:16;15.90;99.90
2489;DHT22;1255;48.716;9.124;2023-05-10T09:26:46;15.80;99.90
2489;DHT22;1255;48.716;9.124;2023-05-10T09:29:14;15.60;99.90
2489;DHT22;1255;48.716;9.124;2023-05-10T09:31:46;15.50;99.90
2489;DHT22;1255;48.716;9.124;2023-05-10T09:34:17;15.40;99.90
2489;DHT22;1255;48.716;9.124;2023-05-10T09:36:51;15.50;99.90
2489;DHT22;1255;48.716;9.124;2023-05-10T09:39:19;15.50;99.90
2489;DHT22;1255;48.716;9.124;2023-05-10T09:41:46;15.60;99.90
2489;DHT22;1255;48.716;9.124;2023-05-10T09:44:16;15.80;99.90
2489;DHT22;1255;48.716;9.124;2023-05-10T09:46:50;15.90;99.90
2489;DHT22;1255;48.716;9.124;2023-05-10T09:49:18;16.00;99.90
2489;DHT22;1255;48.716;9.124;2023-05-10T09:51:45;16.10;99.90
2489;DHT22;1255;48.716;9.124;2023-05-10T09:54:12;16.30;99.90
2489;DHT22;1255;48.716;9.124;2023-05-10T09:56:40;16.30;99.90
2489;DHT22;1255;48.716;9.124;2023-05-10T09:59:09;16.50;99.90
2489;DHT22;1255;48.716;9.124;2023-05-10T10:01:36;16.70;99.90
2489;DHT22;1255;48.716;9.124;2023-05-10T10:04:05;16.90;99.90
2489;DHT22;1255;48.716;9.124;2023-05-10T10:06:36;17.20;99.90
2489;DHT22;1255;48.716;9.124;2023-05-10T10:09:04;17.60;99.90
2489;DHT22;1255;48.716;9.124;2023-05-10T10:11:31;17.80;99.90
2489;DHT22;1255;48.716;9.124;2023-05-10T10:13:58;18.00;99.90
2489;DHT22;1255;48.716;9.124;2023-05-10T10:16:25;17.90;99.90
2489;DHT22;1255;48.716;9.124;2023-05-10T10:18:53;17.80;99.90
2489;DHT22;1255;48.716;9.124;2023-05-10T10:21:21;17.90;99.90
2489;DHT22;1255;48.716;9.124;2023-05-10T10:23:48;18.10;99.90
2489;DHT22;1255;48.716;9.124;2023-05-10T10:26:17;18.20;99.90
2489;DHT22;1255;48.716;9.124;2023-05-10T10:28:51;18.40;99.90
2489;DHT22;1255;48.716;9.124;2023-05-10T10:31:27;18.10;99.90
2489;DHT22;1255;48.716;9.124;2023-05-10T10:34:00;17.90;99.90
2489;DHT22;1255;48.716;9.124;2023-05-10T10:36:29;17.80;99.90
2489;DHT22;1255;48.716;9.124;2023-05-10T10:38:59;17.80;99.90
2489;DHT22;1255;48.716;9.124;2023-05-10T10:41:33;17.90;99.90
2489;DHT22;1255;48.716;9.124;2023-05-10T10:44:23;18.30;99.90
2489;DHT22;1255;48.716;9.124;2023-05-10T10:47:05;18.70;99.90
2489;DHT22;1255;48.716;9.124;2023-05-10T10:49:38;18.80;99.90
2489;DHT22;1255;48.716;9.124;2023-05-10T10:52:20;18.90;99.90
2489;DHT22;1255;48.716;9.124;2023-05-10T10:54:51;19.00;99.90
2489;DHT22;1255;48.716;9.124;2023-05-10T10:57:19;18.50;99.90
2489;DHT22;1255;48.716;9.124;2023-05-10T10:59:47;18.00;99.90
2489;DHT22;1255;48.716;9.124;2023-05-10T11:02:34;17.20;99.90
2489;DHT22;1255;48.716;9.124;2023-05-10T11:08:16;16.20;99.90
2489;DHT22;1255;48.716;9.124;2023-05-10T11:11:02;16.00;99.90
2489;DHT22;1255;48.716;9.124;2023-05-10T11:13:30;15.80;99.90
2489;DHT22;1255;48.716;9.124;2023-05-10T11:15:58;15.70;99.90
2489;DHT22;1255;48.716;9.124;2023-05-10T11:18:28;15.50;99.90
2489;DHT22;1255;48.716;9.124;2023-05-10T11:20:57;15.30;99.90
2489;DHT22;1255;48.716;9.124;2023-05-10T11:23:29;15.20;99.90
2489;DHT22;1255;48.716;9.124;2023-05-10T11:25:57;15.10;99.90
2489;DHT22;1255;48.716;9.124;2023-05-10T11:28:24;15.10;99.90
2489;DHT22;1255;48.716;9.124;2023-05-10T11:30:52;15.10;99.90
2489;DHT22;1255;48.716;9.124;2023-05-10T11:33:20;15.10;99.90
2489;DHT22;1255;48.716;9.124;2023-05-10T11:35:47;15.20;99.90
2489;DHT22;1255;48.716;9.124;2023-05-10T11:38:14;15.30;99.90
2489;DHT22;1255;48.716;9.124;2023-05-10T11:40:43;15.30;99.90
2489;DHT22;1255;48.716;9.124;2023-05-10T11:43:10;15.30;99.90
2489;DHT22;1255;48.716;9.124;2023-05-10T11:45:38;15.20;99.90
2489;DHT22;1255;48.716;9.124;2023-05-10T11:48:06;15.10;99.90
2489;DHT22;1255;48.716;9.124;2023-05-10T11:50:34;15.20;99.90
2489;DHT22;1255;48.716;9.124;2023-05-10T11:53:01;15.20;99.90
2489;DHT22;1255;48.716;9.124;2023-05-10T11:55:28;15.40;99.90
2489;DHT22;1255;48.716;9.124;2023-05-10T11:58:01;15.60;99.90
2489;DHT22;1255;48.716;9.124;2023-05-10T12:00:29;15.90;99.90
2489;DHT22;1255;48.716;9.124;2023-05-10T12:02:57;16.20;99.90
2489;DHT22;1255;48.716;9.124;2023-05-10T12:05:24;16.50;99.90
2489;DHT22;1255;48.716;9.124;2023-05-10T12:07:52;16.90;99.90
2489;DHT22;1255;48.716;9.124;2023-05-10T12:10:26;17.40;99.90
2489;DHT22;1255;48.716;9.124;2023-05-10T12:12:53;17.80;99.90
2489;DHT22;1255;48.716;9.124;2023-05-10T12:15:22;17.90;99.90
2489;DHT22;1255;48.716;9.124;2023-05-10T12:17:50;17.80;99.90
2489;DHT22;1255;48.716;9.124;2023-05-10T12:20:18;17.50;99.90
2489;DHT22;1255;48.716;9.124;2023-05-10T12:22:47;17.20;99.90
2489;DHT22;1255;48.716;9.124;2023-05-10T12:25:16;17.10;99.90
2489;DHT22;1255;48.716;9.124;2023-05-10T12:27:49;17.10;99.90
2489;DHT22;1255;48.716;9.124;2023-05-10T12:30:21;17.10;99.90
2489;DHT22;1255;48.716;9.124;2023-05-10T12:32:49;17.20;99.90
2489;DHT22;1255;48.716;9.124;2023-05-10T12:35:16;17.10;99.90
2489;DHT22;1255;48.716;9.124;2023-05-10T12:37:46;17.00;99.90
2489;DHT22;1255;48.716;9.124;2023-05-10T12:40:13;16.80;99.90
2489;DHT22;1255;48.716;9.124;2023-05-10T12:42:41;16.60;99.90
2489;DHT22;1255;48.716;9.124;2023-05-10T12:45:11;16.30;99.90
2489;DHT22;1255;48.716;9.124;2023-05-10T12:47:39;16.10;99.90
2489;DHT22;1255;48.716;9.124;2023-05-10T12:50:07;16.00;99.90
2489;DHT22;1255;48.716;9.124;2023-05-10T12:52:33;15.80;99.90
2489;DHT22;1255;48.716;9.124;2023-05-10T12:55:01;15.70;99.90
2489;DHT22;1255;48.716;9.124;2023-05-10T12:57:29;15.70;99.90
2489;DHT22;1255;48.716;9.124;2023-05-10T12:59:56;15.70;99.90
2489;DHT22;1255;48.716;9.124;2023-05-10T13:02:22;15.80;99.90
2489;DHT22;1255;48.716;9.124;2023-05-10T13:04:51;15.90;99.90
2489;DHT22;1255;48.716;9.124;2023-05-10T13:07:17;16.10;99.90
2489;DHT22;1255;48.716;9.124;2023-05-10T13:09:44;16.20;99.90
2489;DHT22;1255;48.716;9.124;2023-05-10T13:12:11;16.30;99.90
2489;DHT22;1255;48.716;9.124;2023-05-10T13:14:37;16.50;99.90
2489;DHT22;1255;48.716;9.124;2023-05-10T13:17:06;16.60;99.90
2489;DHT22;1255;48.716;9.124;2023-05-10T13:19:32;16.70;99.90
2489;DHT22;1255;48.716;9.124;2023-05-10T13:22:00;16.80;99.90
2489;DHT22;1255;48.716;9.124;2023-05-10T13:24:27;17.00;99.90
2489;DHT22;1255;48.716;9.124;2023-05-10T13:26:54;17.20;99.90
2489;DHT22;1255;48.716;9.124;2023-05-10T13:29:21;17.30;99.90
2489;DHT22;1255;48.716;9.124;2023-05-10T13:31:48;17.30;99.90
2489;DHT22;1255;48.716;9.124;2023-05-10T13:34:14;17.50;99.90
2489;DHT22;1255;48.716;9.124;2023-05-10T13:36:41;17.50;99.90
2489;DHT22;1255;48.716;9.124;2023-05-10T13:39:09;17.30;99.90
2489;DHT22;1255;48.716;9.124;2023-05-10T13:41:36;17.00;99.90
2489;DHT22;1255;48.716;9.124;2023-05-10T13:44:03;16.90;99.90
2489;DHT22;1255;48.716;9.124;2023-05-10T13:46:30;17.00;99.90
2489;DHT22;1255;48.716;9.124;2023-05-10T13:48:56;17.00;99.90
2489;DHT22;1255;48.716;9.124;2023-05-10T13:51:23;17.10;99.90
2489;DHT22;1255;48.716;9.124;2023-05-10T13:53:50;17.20;99.90
2489;DHT22;1255;48.716;9.124;2023-05-10T13:56:18;17.20;99.90
2489;DHT22;1255;48.716;9.124;2023-05-10T13:58:46;17.30;99.90
2489;DHT22;1255;48.716;9.124;2023-05-10T14:01:12;17.30;99.90
2489;DHT22;1255;48.716;9.124;2023-05-10T14:03:39;17.30;99.90
2489;DHT22;1255;48.716;9.124;2023-05-10T14:06:06;17.30;99.90
2489;DHT22;1255;48.716;9.124;2023-05-10T14:08:33;17.30;99.90
2489;DHT22;1255;48.716;9.124;2023-05-10T14:11:00;17.30;99.90
2489;DHT22;1255;48.716;9.124;2023-05-10T14:13:28;17.20;99.90
2489;DHT22;1255;48.716;9.124;2023-05-10T14:15:55;17.10;99.90
2489;DHT22;1255;48.716;9.124;2023-05-10T14:18:22;17.00;99.90
2489;DHT22;1255;48.716;9.124;2023-05-10T14:20:49;17.10;99.90
2489;DHT22;1255;48.716;9.124;2023-05-10T14:23:15;17.20;99.90
2489;DHT22;1255;48.716;9.124;2023-05-10T14:25:42;17.30;99.90
2489;DHT22;1255;48.716;9.124;2023-05-10T14:28:09;17.30;99.90
2489;DHT22;1255;48.716;9.124;2023-05-10T14:30:38;17.30;99.90
2489;DHT22;1255;48.716;9.124;2023-05-10T14:33:05;17.00;99.90
2489;DHT22;1255;48.716;9.124;2023-05-10T14:35:33;16.80;99.90
2489;DHT22;1255;48.716;9.124;2023-05-10T14:37:59;16.70;99.90
2489;DHT22;1255;48.716;9.124;2023-05-10T14:40:26;16.70;99.90
2489;DHT22;1255;48.716;9.124;2023-05-10T14:42:54;16.70;99.90
2489;DHT22;1255;48.716;9.124;2023-05-10T14:45:21;16.80;99.90
2489;DHT22;1255;48.716;9.124;2023-05-10T14:47:50;16.90;99.90
2489;DHT22;1255;48.716;9.124;2023-05-10T14:50:16;16.90;99.90
2489;DHT22;1255;48.716;9.124;2023-05-10T14:52:43;16.90;99.90
2489;DHT22;1255;48.716;9.124;2023-05-10T14:55:10;16.90;99.90
2489;DHT22;1255;48.716;9.124;2023-05-10T14:57:36;16.90;99.90
2489;DHT22;1255;48.716;9.124;2023-05-10T15:00:04;16.80;99.90
2489;DHT22;1255;48.716;9.124;2023-05-10T15:02:31;16.60;99.90
2489;DHT22;1255;48.716;9.124;2023-05-10T15:04:59;16.50;99.90
2489;DHT22;1255;48.716;9.124;2023-05-10T15:07:25;16.50;99.90
2489;DHT22;1255;48.716;9.124;2023-05-10T15:09:52;16.40;99.90
2489;DHT22;1255;48.716;9.124;2023-05-10T15:12:19;16.40;99.90
2489;DHT22;1255;48.716;9.124;2023-05-10T15:14:46;16.40;99.90
2489;DHT22;1255;48.716;9.124;2023-05-10T15:17:13;16.50;99.90
2489;DHT22;1255;48.716;9.124;2023-05-10T15:19:39;16.50;99.90
2489;DHT22;1255;48.716;9.124;2023-05-10T15:22:07;16.60;99.90
2489;DHT22;1255;48.716;9.124;2023-05-10T15:24:34;16.70;99.90
2489;DHT22;1255;48.716;9.124;2023-05-10T15:27:01;16.70;99.90
2489;DHT22;1255;48.716;9.124;2023-05-10T15:29:28;16.80;99.90
2489;DHT22;1255;48.716;9.124;2023-05-10T15:31:55;16.80;99.90
2489;DHT22;1255;48.716;9.124;2023-05-10T15:34:22;16.90;99.90
2489;DHT22;1255;48.716;9.124;2023-05-10T15:36:48;17.00;99.90
2489;DHT22;1255;48.716;9.124;2023-05-10T15:39:16;17.00;99.90
2489;DHT22;1255;48.716;9.124;2023-05-10T15:41:43;17.10;99.90
2489;DHT22;1255;48.716;9.124;2023-05-10T15:44:10;17.10;99.90
2489;DHT22;1255;48.716;9.124;2023-05-10T15:46:37;17.10;99.90
2489;DHT22;1255;48.716;9.124;2023-05-10T15:49:04;17.10;99.90
2489;DHT22;1255;48.716;9.124;2023-05-10T15:51:31;17.20;99.90
2489;DHT22;1255;48.716;9.124;2023-05-10T15:53:58;17.20;99.90
2489;DHT22;1255;48.716;9.124;2023-05-10T15:56:26;17.30;99.90
2489;DHT22;1255;48.716;9.124;2023-05-10T15:58:52;17.30;99.90
2489;DHT22;1255;48.716;9.124;2023-05-10T16:01:19;17.10;99.90
2489;DHT22;1255;48.716;9.124;2023-05-10T16:03:46;17.00;99.90
2489;DHT22;1255;48.716;9.124;2023-05-10T16:06:13;16.90;99.90
2489;DHT22;1255;48.716;9.124;2023-05-10T16:08:39;16.90;99.90
2489;DHT22;1255;48.716;9.124;2023-05-10T16:11:06;16.90;99.90
2489;DHT22;1255;48.716;9.124;2023-05-10T16:13:34;16.80;99.90
2489;DHT22;1255;48.716;9.124;2023-05-10T16:16:01;16.80;99.90
2489;DHT22;1255;48.716;9.124;2023-05-10T16:18:28;16.60;99.90